Time;durP1;ratioP1;P1;durP2;ratioP2;P2;SDS_P1;SDS_P2;PMS_P1;PMS_P2;Temp;Humidity;BMP_temperature;BMP_pressure;BME280_temperature;BME280_humidity;BME280_pressure;Samples;Min_cycle;Max_cycle;Signal;HPM_P1;HPM_P2
2023/04/21 00:00:45;;;;;;;18.85;15.82;;;;;;;;;;4970190;28;20177;-55
2023/04/21 00:03:10;;;;;;;25.95;17.95;;;8.70;99.90;;;;;;4970458;28;20265;-53
2023/04/21 00:05:37;;;;;;;21.88;16.70;;;8.70;99.90;;;;;;4970542;28;20231;-52
2023/04/21 00:08:03;;;;;;;23.60;18.77;;;;;;;;;;4970351;28;20539;-48
2023/04/21 00:10:28;;;;;;;27.27;19.38;;;8.70;99.90;;;;;;4984873;28;20303;-51
2023/04/21 00:12:54;;;;;;;25.00;18.27;;;8.70;99.90;;;;;;4989721;28;20268;-49
2023/04/21 00:15:19;;;;;;;24.73;19.02;;;8.70;99.90;;;;;;4989849;28;20168;-46
2023/04/21 00:17:45;;;;;;;23.48;17.75;;;8.60;99.90;;;;;;4989917;28;20214;-46
2023/04/21 00:20:11;;;;;;;25.83;19.00;;;8.60;99.90;;;;;;4989725;28;20173;-46
2023/04/21 00:22:37;;;;;;;23.00;18.30;;;8.60;99.90;;;;;;4989782;28;20173;-45
2023/04/21 00:25:02;;;;;;;28.77;19.20;;;8.70;99.90;;;;;;4989663;28;20165;-46
2023/04/21 00:27:28;;;;;;;27.02;20.02;;;8.60;99.90;;;;;;4989587;28;20244;-46
2023/04/21 00:29:53;;;;;;;25.63;19.95;;;8.50;99.90;;;;;;4989843;28;20295;-48
2023/04/21 00:32:19;;;;;;;26.17;19.60;;;8.70;99.90;;;;;;4989526;28;20189;-48
2023/04/21 00:34:45;;;;;;;27.60;20.67;;;8.60;99.90;;;;;;4989593;28;20180;-45
2023/04/21 00:37:10;;;;;;;25.83;19.73;;;8.60;99.90;;;;;;4989397;28;20173;-48
2023/04/21 00:39:36;;;;;;;27.55;20.50;;;8.50;99.90;;;;;;4980295;28;20256;-47
2023/04/21 00:42:02;;;;;;;25.67;20.55;;;8.60;99.90;;;;;;4969321;28;20747;-46
2023/04/21 00:44:27;;;;;;;32.22;21.58;;;8.60;99.90;;;;;;4969827;28;20243;-48
2023/04/21 00:46:53;;;;;;;29.92;22.08;;;;;;;;;;4970157;28;20170;-46
2023/04/21 00:49:19;;;;;;;29.27;22.20;;;8.60;99.90;;;;;;4969749;28;20633;-46
2023/04/21 00:51:45;;;;;;;31.70;21.67;;;8.70;99.90;;;;;;4969667;28;20177;-46
2023/04/21 00:54:11;;;;;;;29.27;21.88;;;;;;;;;;4969992;28;20174;-46
2023/04/21 00:56:37;;;;;;;27.35;20.40;;;;;;;;;;4969873;28;20165;-46
2023/04/21 00:59:03;;;;;;;26.08;20.95;;;;;;;;;;4969800;28;20576;-45
2023/04/21 01:01:30;;;;;;;32.22;22.33;;;8.60;99.90;;;;;;4969553;28;20197;-46
2023/04/21 01:03:58;;;;;;;31.30;21.48;;;8.50;99.90;;;;;;4970320;28;20246;-47
2023/04/21 01:06:24;;;;;;;26.92;21.13;;;8.50;99.90;;;;;;4970120;28;20177;-46
2023/04/21 01:08:52;;;;;;;27.90;21.27;;;8.50;99.90;;;;;;4970652;28;20223;-45
2023/04/21 01:11:18;;;;;;;28.30;21.70;;;8.60;99.90;;;;;;4986908;28;20208;-46
2023/04/21 01:13:43;;;;;;;31.10;23.02;;;8.50;99.90;;;;;;4988764;28;20173;-45
2023/04/21 01:16:15;;;;;;;29.48;22.38;;;8.50;99.90;;;;;;4988964;28;20523;-46
2023/04/21 01:18:41;;;;;;;30.65;23.05;;;8.60;99.90;;;;;;4988756;28;20200;-46
2023/04/21 01:21:07;;;;;;;27.02;22.92;;;8.50;99.90;;;;;;4989012;28;20196;-46
2023/04/21 01:23:32;;;;;;;32.03;23.60;;;8.50;99.90;;;;;;4988656;28;20207;-46
2023/04/21 01:25:58;;;;;;;29.17;22.33;;;;;;;;;;4988991;28;20256;-49
2023/04/21 01:28:25;;;;;;;30.05;22.75;;;8.60;99.90;;;;;;4989226;28;20598;-54
2023/04/21 01:30:51;;;;;;;31.33;22.63;;;8.60;99.90;;;;;;4988629;28;20205;-52
2023/04/21 01:33:19;;;;;;;29.77;23.38;;;8.70;99.90;;;;;;4988587;28;20168;-53
2023/04/21 01:35:45;;;;;;;32.33;23.98;;;;;;;;;;4973150;28;20196;-54
2023/04/21 01:38:11;;;;;;;36.60;24.38;;;8.70;99.90;;;;;;4969558;28;20180;-54
2023/04/21 01:40:38;;;;;;;31.17;24.52;;;8.70;99.90;;;;;;4969439;28;20204;-51
2023/04/21 01:43:04;;;;;;;34.50;24.38;;;8.70;99.90;;;;;;4969395;28;20192;-54
2023/04/21 01:45:30;;;;;;;34.40;22.67;;;8.70;99.90;;;;;;4969293;28;20223;-45
2023/04/21 01:47:56;;;;;;;31.70;23.08;;;8.70;99.90;;;;;;4969467;28;20178;-46
2023/04/21 01:50:21;;;;;;;32.58;24.80;;;8.70;99.90;;;;;;4968981;28;20224;-48
2023/04/21 01:52:47;;;;;;;31.92;24.25;;;;;;;;;;4968501;28;20175;-46
2023/04/21 01:55:13;;;;;;;31.80;23.08;;;8.80;99.90;;;;;;4969011;28;20173;-49
2023/04/21 01:57:39;;;;;;;33.72;24.90;;;8.90;99.90;;;;;;4969203;28;20169;-46
2023/04/21 02:00:05;;;;;;;33.70;24.63;;;8.90;99.90;;;;;;4969245;28;20174;-46
2023/04/21 02:02:31;;;;;;;34.22;24.00;;;8.90;99.90;;;;;;4967672;28;20602;-46
2023/04/21 02:04:57;;;;;;;35.28;25.92;;;;;;;;;;4977171;28;20176;-46
2023/04/21 02:07:22;;;;;;;32.40;23.20;;;8.90;99.90;;;;;;4987452;28;20169;-46
2023/04/21 02:09:48;;;;;;;34.08;25.30;;;8.90;99.90;;;;;;4988093;28;20212;-47
2023/04/21 02:12:13;;;;;;;33.53;24.42;;;8.90;99.90;;;;;;4988102;28;20200;-46
2023/04/21 02:14:39;;;;;;;35.15;25.10;;;;;;;;;;4987948;28;20196;-46
2023/04/21 02:17:05;;;;;;;34.70;24.95;;;8.90;99.90;;;;;;4988544;28;20572;-46
2023/04/21 02:19:31;;;;;;;34.85;24.73;;;9.00;99.90;;;;;;4988238;28;20169;-45
2023/04/21 02:21:57;;;;;;;34.75;23.98;;;8.90;99.90;;;;;;4989133;28;20206;-46
2023/04/21 02:24:24;;;;;;;35.55;24.88;;;9.00;99.90;;;;;;4991851;28;20165;-46
2023/04/21 02:26:50;;;;;;;32.80;24.35;;;9.00;99.90;;;;;;4991356;28;20169;-46
2023/04/21 02:29:15;;;;;;;34.65;25.48;;;9.00;99.90;;;;;;4991266;28;20276;-49
2023/04/21 02:31:41;;;;;;;32.63;23.35;;;;;;;;;;4991433;28;20179;-47
2023/04/21 02:34:07;;;;;;;35.10;25.15;;;9.00;99.90;;;;;;4989135;28;20247;-48
2023/04/21 02:36:33;;;;;;;31.77;23.60;;;8.90;99.90;;;;;;4971540;28;20179;-46
2023/04/21 02:38:58;;;;;;;36.17;24.23;;;8.90;99.90;;;;;;4971547;28;20166;-46
2023/04/21 02:41:24;;;;;;;34.22;24.35;;;8.70;99.90;;;;;;4971967;28;20173;-49
2023/04/21 02:43:49;;;;;;;39.78;25.98;;;8.80;99.90;;;;;;4971823;28;20157;-51
2023/04/21 02:46:15;;;;;;;35.63;24.17;;;8.80;99.90;;;;;;4971891;28;20593;-46
2023/04/21 02:48:41;;;;;;;34.70;24.60;;;;;;;;;;4970394;28;20673;-49
2023/04/21 02:51:14;;;;;;;34.63;24.65;;;8.70;99.90;;;;;;4971622;28;20552;-49
2023/04/21 02:53:40;;;;;;;36.25;25.65;;;8.70;99.90;;;;;;4971662;28;20170;-48
2023/04/21 02:56:07;;;;;;;35.80;25.52;;;8.60;99.90;;;;;;4972030;28;20205;-48
2023/04/21 02:58:34;;;;;;;37.90;25.63;;;8.60;99.90;;;;;;4971863;28;20180;-48
2023/04/21 03:01:01;;;;;;;35.78;25.05;;;8.60;99.90;;;;;;4971630;28;20542;-47
2023/04/21 03:03:27;;;;;;;36.83;24.85;;;;;;;;;;4971393;28;20176;-46
2023/04/21 03:06:00;;;;;;;37.13;26.10;;;8.60;99.90;;;;;;4989570;28;20169;-46
2023/04/21 03:08:26;;;;;;;38.38;26.33;;;8.60;99.90;;;;;;4990949;28;20175;-49
2023/04/21 03:10:52;;;;;;;37.47;26.73;;;8.50;99.90;;;;;;4990910;28;20204;-46
2023/04/21 03:13:17;;;;;;;37.28;25.17;;;8.40;99.90;;;;;;4990246;28;20537;-46
2023/04/21 03:15:43;;;;;;;41.92;27.90;;;8.50;99.90;;;;;;4990663;28;20176;-45
2023/04/21 03:18:09;;;;;;;40.10;27.30;;;8.40;99.90;;;;;;4990842;28;20187;-46
2023/04/21 03:20:35;;;;;;;37.20;26.00;;;8.40;99.90;;;;;;4990532;28;20177;-46
2023/04/21 03:23:01;;;;;;;35.47;24.77;;;;;;;;;;4990840;28;20628;-49
2023/04/21 03:25:27;;;;;;;35.83;25.30;;;8.30;99.90;;;;;;4990619;28;20243;-50
2023/04/21 03:27:53;;;;;;;36.75;25.83;;;8.30;99.90;;;;;;4990886;28;20515;-50
2023/04/21 03:30:19;;;;;;;36.92;25.80;;;8.30;99.90;;;;;;4990445;28;20203;-53
2023/04/21 03:32:45;;;;;;;38.75;26.65;;;;;;;;;;4990303;28;20179;-46
2023/04/21 03:35:11;;;;;;;36.42;26.58;;;8.20;99.90;;;;;;4977796;28;20257;-49
2023/04/21 03:37:36;;;;;;;36.90;26.27;;;8.20;99.90;;;;;;4970811;28;20180;-47
2023/04/21 03:40:04;;;;;;;38.70;27.08;;;;;;;;;;4970883;28;20633;-47
2023/04/21 03:42:31;;;;;;;40.40;25.77;;;8.20;99.90;;;;;;4971114;28;20626;-47
2023/04/21 03:45:04;;;;;;;39.58;26.80;;;8.20;99.90;;;;;;4970665;28;20162;-46
2023/04/21 03:47:29;;;;;;;43.60;26.50;;;8.20;99.90;;;;;;4970801;28;20178;-46
2023/04/21 03:49:55;;;;;;;38.60;25.25;;;8.20;99.90;;;;;;4971161;28;20213;-47
2023/04/21 03:52:20;;;;;;;38.28;27.45;;;8.20;99.90;;;;;;4970551;28;20173;-46
2023/04/21 03:54:46;;;;;;;39.38;26.10;;;;;;;;;;4970690;28;20176;-46
2023/04/21 03:57:13;;;;;;;34.47;25.40;;;8.10;99.90;;;;;;4970554;28;20169;-47
2023/04/21 03:59:39;;;;;;;38.80;25.90;;;8.10;99.90;;;;;;4970517;28;20591;-46
2023/04/21 04:02:04;;;;;;;37.45;25.25;;;8.10;99.90;;;;;;4970722;28;20173;-45
2023/04/21 04:04:30;;;;;;;38.13;26.35;;;8.00;99.90;;;;;;4969942;28;20170;-46
2023/04/21 04:06:56;;;;;;;35.95;24.42;;;;;;;;;;4970996;28;20552;-45
2023/04/21 04:09:22;;;;;;;34.35;24.17;;;8.00;99.90;;;;;;4970548;28;20213;-45
2023/04/21 04:11:48;;;;;;;37.67;23.90;;;8.10;99.90;;;;;;4970570;28;20191;-46
2023/04/21 04:14:14;;;;;;;37.53;25.00;;;;;;;;;;4984592;28;20183;-45
2023/04/21 04:16:40;;;;;;;39.33;24.60;;;8.00;99.90;;;;;;4989958;28;20264;-45
2023/04/21 04:19:06;;;;;;;38.42;24.77;;;8.00;99.90;;;;;;4989939;28;20173;-47
2023/04/21 04:21:32;;;;;;;35.05;24.20;;;;;;;;;;4988066;28;20259;-46
2023/04/21 04:23:58;;;;;;;38.83;26.27;;;8.00;99.90;;;;;;4970242;28;20173;-47
2023/04/21 04:26:25;;;;;;;36.45;24.52;;;8.00;99.90;;;;;;4970740;28;20178;-46
2023/04/21 04:28:56;;;;;;;36.30;24.88;;;8.00;99.90;;;;;;4970649;28;20534;-46
2023/04/21 04:31:24;;;;;;;37.55;24.27;;;8.00;99.90;;;;;;4970256;28;20717;-49
2023/04/21 04:33:50;;;;;;;41.50;26.73;;;8.00;99.90;;;;;;4970971;28;20178;-48
2023/04/21 04:36:16;;;;;;;34.75;24.15;;;;;;;;;;4988992;28;20192;-47
2023/04/21 04:38:42;;;;;;;34.95;23.70;;;8.00;99.90;;;;;;4989267;28;20169;-49
2023/04/21 04:41:08;;;;;;;35.92;24.65;;;;;;;;;;4989226;28;20161;-49
2023/04/21 04:43:37;;;;;;;36.05;23.23;;;8.00;99.90;;;;;;4989324;28;20253;-51
2023/04/21 04:46:04;;;;;;;37.88;24.92;;;8.00;99.90;;;;;;4988884;28;20177;-49
2023/04/21 04:48:30;;;;;;;34.97;23.33;;;;;;;;;;4989174;28;20184;-46
2023/04/21 04:50:56;;;;;;;36.28;23.27;;;;;;;;;;4987832;28;20216;-47
2023/04/21 04:53:21;;;;;;;35.15;22.88;;;8.00;99.90;;;;;;4989392;28;20173;-46
2023/04/21 04:55:47;;;;;;;34.25;24.13;;;8.10;99.90;;;;;;4987971;28;20172;-46
2023/04/21 04:58:13;;;;;;;32.97;21.95;;;8.10;99.90;;;;;;4989161;28;20165;-47
2023/04/21 05:00:38;;;;;;;30.15;20.40;;;8.10;99.90;;;;;;4989344;28;20177;-46
2023/04/21 05:03:04;;;;;;;29.02;20.48;;;8.10;99.90;;;;;;4980502;28;20169;-47
2023/04/21 05:05:30;;;;;;;30.50;21.52;;;8.10;99.90;;;;;;4969512;28;20189;-46
2023/04/21 05:07:56;;;;;;;29.45;21.52;;;8.20;99.90;;;;;;4976867;28;20651;-48
2023/04/21 05:10:22;;;;;;;34.17;21.23;;;8.10;99.90;;;;;;4981905;28;20223;-47
2023/04/21 05:12:47;;;;;;;30.30;20.88;;;8.20;99.90;;;;;;4969739;28;20180;-49
2023/04/21 05:15:13;;;;;;;29.98;21.00;;;8.30;99.90;;;;;;4969440;28;20161;-47
2023/04/21 05:17:39;;;;;;;31.92;21.42;;;8.40;99.90;;;;;;4969364;28;20178;-46
2023/04/21 05:20:06;;;;;;;31.10;19.95;;;8.30;99.90;;;;;;4969624;28;20174;-47
2023/04/21 05:22:35;;;;;;;29.75;20.35;;;8.30;99.90;;;;;;4969655;28;20290;-46
2023/04/21 05:25:01;;;;;;;35.67;21.88;;;8.40;99.90;;;;;;4986691;28;20532;-49
2023/04/21 05:27:27;;;;;;;29.25;20.60;;;8.40;99.90;;;;;;4988964;28;20582;-48
2023/04/21 05:29:54;;;;;;;30.60;21.38;;;;;;;;;;4988550;28;20283;-47
2023/04/21 05:32:19;;;;;;;30.60;21.55;;;8.50;99.90;;;;;;4988558;28;20177;-49
2023/04/21 05:34:45;;;;;;;31.00;20.58;;;8.50;99.90;;;;;;4988546;28;20633;-49
2023/04/21 05:37:11;;;;;;;28.52;20.10;;;8.50;99.90;;;;;;4988497;28;20173;-51
2023/04/21 05:39:36;;;;;;;26.92;20.02;;;8.40;99.90;;;;;;4988701;28;20185;-48
2023/04/21 05:42:02;;;;;;;28.75;18.95;;;;;;;;;;4988491;28;20656;-48
2023/04/21 05:44:28;;;;;;;23.80;18.60;;;8.50;99.90;;;;;;4988629;28;20172;-47
2023/04/21 05:46:54;;;;;;;27.23;20.10;;;;;;;;;;4988794;28;20641;-46
2023/04/21 05:49:20;;;;;;;27.70;19.70;;;;;;;;;;4988796;28;20180;-46
2023/04/21 05:51:46;;;;;;;23.83;17.77;;;8.50;99.90;;;;;;4988580;28;20177;-47
2023/04/21 05:54:12;;;;;;;26.58;19.98;;;8.50;99.90;;;;;;4977787;28;20187;-49
2023/04/21 05:56:38;;;;;;;27.83;19.60;;;;;;;;;;4969415;28;20170;-47
2023/04/21 05:59:05;;;;;;;26.95;19.48;;;;;;;;;;4972597;28;20208;-47
2023/04/21 06:01:31;;;;;;;27.40;20.08;;;8.60;99.90;;;;;;4972501;28;20173;-49
2023/04/21 06:03:57;;;;;;;27.13;19.92;;;8.60;99.90;;;;;;4971081;28;20257;-47
2023/04/21 06:06:25;;;;;;;25.65;19.67;;;8.70;99.90;;;;;;4972578;28;20170;-47
2023/04/21 06:08:50;;;;;;;30.23;20.23;;;8.80;99.90;;;;;;4972186;28;20255;-48
2023/04/21 06:11:16;;;;;;;25.95;19.95;;;8.70;99.90;;;;;;4971056;28;20672;-47
2023/04/21 06:13:41;;;;;;;27.70;20.33;;;8.70;99.90;;;;;;4972320;28;20177;-47
2023/04/21 06:16:07;;;;;;;28.23;19.63;;;;;;;;;;4972286;28;20170;-47
2023/04/21 06:18:33;;;;;;;27.35;20.30;;;8.90;99.90;;;;;;4971951;28;20176;-48
2023/04/21 06:20:59;;;;;;;28.95;19.92;;;;;;;;;;4972175;28;20177;-46
2023/04/21 06:23:24;;;;;;;26.60;19.40;;;9.10;99.90;;;;;;4978955;28;20632;-49
2023/04/21 06:26:05;;;;;;;25.50;19.05;;;9.00;99.90;;;;;;4991190;28;20184;-47
2023/04/21 06:28:32;;;;;;;25.02;19.38;;;9.00;99.90;;;;;;4991460;28;20314;-48
2023/04/21 06:30:59;;;;;;;26.30;18.60;;;9.10;99.90;;;;;;4989729;28;20286;-47
2023/04/21 06:33:25;;;;;;;26.88;19.95;;;9.20;99.90;;;;;;4991789;28;20177;-47
2023/04/21 06:35:51;;;;;;;25.48;17.98;;;9.20;99.90;;;;;;4991736;28;20165;-47
2023/04/21 06:38:17;;;;;;;26.40;18.95;;;9.20;99.90;;;;;;4991383;28;20517;-48
2023/04/21 06:40:43;;;;;;;28.25;20.98;;;9.30;99.90;;;;;;4991193;28;20184;-47
2023/04/21 06:43:08;;;;;;;25.08;19.63;;;9.30;99.90;;;;;;4991264;28;20173;-49
2023/04/21 06:45:34;;;;;;;26.13;19.58;;;9.40;99.90;;;;;;4991095;28;20552;-47
2023/04/21 06:47:59;;;;;;;27.75;20.10;;;9.50;99.90;;;;;;4989915;28;20509;-47
2023/04/21 06:50:25;;;;;;;29.25;19.55;;;;;;;;;;4991304;28;20581;-47
2023/04/21 06:52:51;;;;;;;26.88;19.95;;;9.70;99.90;;;;;;4989059;28;20591;-47
2023/04/21 06:55:17;;;;;;;25.08;19.35;;;;;;;;;;4972950;28;20169;-47
2023/04/21 06:57:42;;;;;;;25.23;19.23;;;10.00;99.90;;;;;;4973435;28;20185;-48
2023/04/21 07:00:08;;;;;;;26.42;20.80;;;10.10;99.90;;;;;;4971769;28;20250;-47
2023/04/21 07:02:34;;;;;;;24.17;19.35;;;10.10;99.90;;;;;;4971463;28;20187;-47
2023/04/21 07:05:00;;;;;;;23.83;18.90;;;10.20;99.90;;;;;;4971786;28;20645;-47
2023/04/21 07:07:26;;;;;;;26.33;19.92;;;;;;;;;;4971224;28;20192;-47
2023/04/21 07:09:51;;;;;;;26.25;19.98;;;10.20;99.90;;;;;;4971551;28;20316;-48
2023/04/21 07:12:17;;;;;;;28.15;20.25;;;10.30;99.90;;;;;;4971470;28;20212;-48
2023/04/21 07:14:42;;;;;;;27.10;20.98;;;10.50;99.90;;;;;;4971352;28;20169;-47
2023/04/21 07:17:08;;;;;;;26.67;18.83;;;10.50;99.90;;;;;;4980032;28;20180;-48
2023/04/21 07:19:33;;;;;;;23.20;18.95;;;10.50;99.90;;;;;;4990550;28;20173;-48
2023/04/21 07:21:59;;;;;;;23.58;18.90;;;10.70;99.90;;;;;;4982757;28;20234;-48
2023/04/21 07:24:25;;;;;;;20.58;17.40;;;;;;;;;;4971872;28;20173;-47
2023/04/21 07:26:50;;;;;;;26.90;18.83;;;10.70;99.90;;;;;;4971544;28;20512;-47
2023/04/21 07:29:16;;;;;;;22.92;17.63;;;10.90;99.90;;;;;;4971072;28;20178;-47
2023/04/21 07:31:42;;;;;;;22.10;18.77;;;;;;;;;;4971104;28;20205;-47
2023/04/21 07:34:07;;;;;;;21.02;16.92;;;11.30;99.90;;;;;;4971255;28;20252;-47
2023/04/21 07:36:33;;;;;;;21.25;16.55;;;11.30;99.90;;;;;;4971104;28;20178;-47
2023/04/21 07:38:59;;;;;;;21.48;18.33;;;11.40;99.90;;;;;;4971170;28;20216;-47
2023/04/21 07:41:25;;;;;;;21.25;17.58;;;;;;;;;;4971340;28;20228;-47
2023/04/21 07:43:51;;;;;;;20.27;16.55;;;;;;;;;;4971474;28;20647;-47
2023/04/21 07:46:16;;;;;;;21.60;18.05;;;11.50;99.90;;;;;;4972704;28;20216;-48
2023/04/21 07:48:42;;;;;;;21.15;17.30;;;11.60;99.90;;;;;;4989946;28;20180;-47
2023/04/21 07:51:07;;;;;;;20.58;16.73;;;11.70;99.90;;;;;;4990108;28;20208;-47
2023/04/21 07:53:33;;;;;;;21.58;15.82;;;;;;;;;;4990053;28;20742;-47
2023/04/21 07:55:59;;;;;;;20.67;17.02;;;11.70;99.90;;;;;;4990259;28;20176;-47
2023/04/21 07:58:25;;;;;;;25.13;17.98;;;;;;;;;;4989723;28;20184;-48
2023/04/21 08:00:50;;;;;;;21.63;18.20;;;11.70;99.90;;;;;;4990507;28;20196;-47
2023/04/21 08:03:16;;;;;;;22.52;16.92;;;11.80;99.90;;;;;;4990049;28;20648;-49
2023/04/21 08:05:41;;;;;;;22.02;18.35;;;11.60;99.90;;;;;;4988186;28;20180;-48
2023/04/21 08:08:07;;;;;;;22.85;18.40;;;;;;;;;;4989689;28;20679;-49
2023/04/21 08:10:33;;;;;;;24.15;18.30;;;11.60;99.90;;;;;;4989697;28;20228;-47
2023/04/21 08:12:59;;;;;;;22.00;17.55;;;;;;;;;;4982510;28;20512;-47
2023/04/21 08:15:25;;;;;;;23.60;18.25;;;;;;;;;;4984786;28;20230;-47
2023/04/21 08:17:52;;;;;;;23.83;19.13;;;;;;;;;;4990267;28;20169;-48
2023/04/21 08:20:17;;;;;;;23.45;19.23;;;11.90;99.90;;;;;;4989070;28;20287;-49
2023/04/21 08:22:43;;;;;;;25.67;18.88;;;;;;;;;;4989894;28;20203;-49
2023/04/21 08:25:09;;;;;;;28.33;18.30;;;;;;;;;;4989574;28;20268;-48
2023/04/21 08:27:38;;;;;;;20.98;16.73;;;12.20;99.90;;;;;;4989550;28;20169;-47
2023/04/21 08:30:05;;;;;;;20.20;17.63;;;12.20;99.90;;;;;;4989701;28;20201;-48
2023/04/21 08:32:31;;;;;;;20.00;17.02;;;;;;;;;;4989844;28;20231;-48
2023/04/21 08:34:56;;;;;;;20.30;16.30;;;12.40;99.90;;;;;;4989592;28;20164;-47
2023/04/21 08:37:22;;;;;;;19.73;15.75;;;12.50;99.90;;;;;;4970871;28;20224;-47
2023/04/21 08:39:52;;;;;;;22.10;16.17;;;12.60;99.90;;;;;;4970114;28;20206;-49
2023/04/21 08:42:18;;;;;;;20.00;15.45;;;12.90;99.90;;;;;;4970260;28;20169;-49
2023/04/21 08:44:44;;;;;;;18.65;15.48;;;12.90;99.90;;;;;;4969874;28;20169;-48
2023/04/21 08:47:11;;;;;;;20.10;15.38;;;13.00;99.90;;;;;;4969981;28;20291;-47
2023/04/21 08:49:38;;;;;;;18.92;15.27;;;12.90;99.90;;;;;;4969874;28;20180;-47
2023/04/21 08:52:04;;;;;;;19.20;15.20;;;12.80;99.90;;;;;;4969721;28;20663;-47
2023/04/21 08:54:31;;;;;;;22.95;15.85;;;12.90;99.90;;;;;;4970152;28;20227;-48
2023/04/21 08:56:57;;;;;;;21.73;15.45;;;13.20;99.90;;;;;;4970024;28;20188;-47
2023/04/21 08:59:22;;;;;;;21.40;16.13;;;;;;;;;;4970162;28;20174;-47
2023/04/21 09:02:17;;;;;;;17.05;15.25;;;13.90;99.90;;;;;;4968529;28;20527;-47
2023/04/21 09:04:50;;;;;;;23.08;15.10;;;14.20;99.90;;;;;;4969562;28;20165;-48
2023/04/21 09:07:37;;;;;;;17.42;14.00;;;14.10;99.90;;;;;;4987431;28;20265;-48
2023/04/21 09:10:05;;;;;;;18.35;14.55;;;14.10;99.90;;;;;;4988885;28;20224;-47
2023/04/21 09:12:30;;;;;;;15.65;13.90;;;14.00;99.90;;;;;;4989053;28;20172;-47
2023/04/21 09:14:59;;;;;;;17.33;13.32;;;14.10;99.90;;;;;;4977087;28;20312;-47
2023/04/21 09:17:31;;;;;;;16.75;14.05;;;14.20;99.90;;;;;;4969672;28;20189;-47
2023/04/21 09:20:10;;;;;;;18.30;14.60;;;14.40;99.90;;;;;;4969797;28;20213;-48
2023/04/21 09:22:37;;;;;;;19.52;15.48;;;14.40;99.90;;;;;;4969476;28;20185;-47
2023/04/21 09:25:03;;;;;;;17.70;15.27;;;;;;;;;;4969726;28;20231;-48
2023/04/21 09:27:28;;;;;;;15.95;13.90;;;14.40;99.90;;;;;;4969404;28;20165;-47
2023/04/21 09:29:54;;;;;;;16.55;14.02;;;14.60;99.90;;;;;;4969705;28;20212;-45
2023/04/21 09:32:20;;;;;;;16.23;14.40;;;;;;;;;;4972773;28;20169;-46
2023/04/21 09:34:46;;;;;;;18.23;15.50;;;14.30;99.90;;;;;;4972706;28;20165;-46
2023/04/21 09:37:13;;;;;;;16.05;13.32;;;14.30;99.90;;;;;;4991701;28;20195;-46
2023/04/21 09:39:43;;;;;;;15.50;13.52;;;14.50;99.90;;;;;;4992405;28;20169;-46
2023/04/21 09:42:10;;;;;;;17.27;13.55;;;14.80;99.90;;;;;;4991052;28;20648;-47
2023/04/21 09:44:37;;;;;;;16.83;13.43;;;;;;;;;;4992130;28;20179;-45
2023/04/21 09:47:03;;;;;;;19.45;15.45;;;14.80;99.90;;;;;;4991699;28;20165;-47
2023/04/21 09:49:33;;;;;;;17.77;14.85;;;14.70;99.90;;;;;;4991872;28;20690;-46
2023/04/21 09:52:00;;;;;;;22.55;14.88;;;15.10;99.90;;;;;;4991963;28;20259;-47
2023/04/21 09:54:32;;;;;;;18.17;15.07;;;14.90;99.90;;;;;;4991933;28;20169;-46
2023/04/21 09:57:03;;;;;;;18.52;15.10;;;14.80;99.90;;;;;;4991809;28;20177;-46
2023/04/21 09:59:35;;;;;;;19.08;15.10;;;15.00;99.90;;;;;;4991814;28;20648;-46
2023/04/21 10:02:04;;;;;;;16.60;13.77;;;15.20;99.90;;;;;;4992067;28;20259;-45
2023/04/21 10:04:31;;;;;;;16.83;14.57;;;15.40;99.90;;;;;;4991819;28;20567;-45
2023/04/21 10:06:59;;;;;;;17.52;14.23;;;15.30;99.90;;;;;;4972846;28;20181;-46
2023/04/21 10:09:32;;;;;;;18.40;14.57;;;15.20;99.90;;;;;;4972572;28;20217;-46
2023/04/21 10:11:59;;;;;;;18.25;14.98;;;15.50;99.90;;;;;;4972310;28;20583;-46
2023/04/21 10:14:25;;;;;;;16.52;14.73;;;;;;;;;;4972581;28;20165;-46
2023/04/21 10:17:07;;;;;;;17.52;14.05;;;15.30;99.90;;;;;;4972738;28;20242;-46
2023/04/21 10:19:38;;;;;;;16.10;12.57;;;15.50;99.90;;;;;;4972531;28;20173;-48
2023/04/21 10:22:06;;;;;;;17.40;14.48;;;15.40;99.90;;;;;;4972421;28;20177;-48
2023/04/21 10:24:37;;;;;;;15.00;13.05;;;15.30;99.90;;;;;;4985690;28;20221;-46
2023/04/21 10:27:03;;;;;;;15.02;12.35;;;15.50;99.90;;;;;;4991603;28;20165;-46
2023/04/21 10:29:30;;;;;;;15.23;13.20;;;15.70;99.90;;;;;;4991374;28;20651;-46
2023/04/21 10:31:56;;;;;;;15.40;12.82;;;15.60;99.90;;;;;;4991484;28;20192;-47
2023/04/21 10:34:29;;;;;;;15.43;12.43;;;15.40;99.90;;;;;;4991739;28;20164;-46
2023/04/21 10:36:54;;;;;;;15.32;12.60;;;15.40;99.90;;;;;;4974752;28;20242;-46
2023/04/21 10:39:28;;;;;;;13.32;10.43;;;15.60;99.90;;;;;;4971848;28;20165;-46
2023/04/21 10:41:57;;;;;;;15.30;12.07;;;15.70;99.90;;;;;;4972263;28;20177;-46
2023/04/21 10:44:23;;;;;;;17.88;12.55;;;15.60;99.90;;;;;;4971555;28;20169;-45
2023/04/21 10:46:53;;;;;;;14.40;11.98;;;15.70;99.90;;;;;;4971658;28;20169;-46
2023/04/21 10:49:27;;;;;;;15.13;12.25;;;16.00;99.90;;;;;;4971562;28;20614;-46
2023/04/21 10:54:25;;;;;;;15.55;12.18;;;16.40;99.90;;;;;;4972464;28;20178;-48
2023/04/21 10:56:52;;;;;;;16.70;12.55;;;16.50;99.90;;;;;;4971980;28;20706;-48
2023/04/21 10:59:19;;;;;;;13.35;10.98;;;16.50;99.90;;;;;;4971421;28;20173;-50
2023/04/21 11:01:44;;;;;;;14.75;12.27;;;16.90;99.90;;;;;;4971409;28;20170;-49
2023/04/21 11:04:14;;;;;;;14.55;12.43;;;16.90;99.90;;;;;;4971511;28;20192;-48
2023/04/21 11:06:40;;;;;;;15.50;12.57;;;17.30;99.90;;;;;;4970708;28;20641;-49
2023/04/21 11:09:06;;;;;;;13.68;11.05;;;17.10;99.90;;;;;;4971279;28;20274;-49
2023/04/21 11:11:31;;;;;;;12.10;7.97;;;16.80;99.90;;;;;;4970106;28;20221;-50
2023/04/21 11:14:01;;;;;;;10.75;9.13;;;16.40;99.90;;;;;;4971332;28;20537;-50
2023/04/21 11:16:26;;;;;;;12.25;10.30;;;16.50;99.90;;;;;;4971130;28;20680;-48
2023/04/21 11:18:55;;;;;;;12.52;10.32;;;16.70;99.90;;;;;;4971499;28;20166;-49
2023/04/21 11:21:21;;;;;;;16.95;11.63;;;16.80;99.90;;;;;;4971549;28;20253;-48
2023/04/21 11:23:49;;;;;;;13.05;10.10;;;16.90;99.90;;;;;;4971340;28;20222;-53
2023/04/21 11:26:14;;;;;;;11.82;8.90;;;16.90;99.90;;;;;;4971316;28;20538;-52
2023/04/21 11:28:40;;;;;;;11.63;9.68;;;17.10;99.90;;;;;;4971376;28;20607;-51
2023/04/21 11:31:06;;;;;;;11.15;8.45;;;17.30;99.90;;;;;;4970974;28;20266;-51
2023/04/21 11:33:37;;;;;;;12.90;10.05;;;17.30;99.90;;;;;;4971240;28;20625;-48
2023/04/21 11:36:06;;;;;;;10.57;9.05;;;17.40;99.90;;;;;;4982962;28;20177;-51
2023/04/21 11:38:41;;;;;;;11.05;9.45;;;17.70;99.90;;;;;;4990753;28;20172;-52
2023/04/21 11:41:09;;;;;;;10.38;8.50;;;17.70;99.90;;;;;;4990365;28;20658;-52
2023/04/21 11:43:35;;;;;;;11.35;8.30;;;17.80;99.90;;;;;;4985108;28;20180;-51
2023/04/21 11:46:24;;;;;;;10.77;8.20;;;17.90;99.90;;;;;;4970795;28;20251;-52
2023/04/21 11:49:07;;;;;;;10.07;8.73;;;17.70;99.90;;;;;;4970827;28;20168;-52
2023/04/21 11:51:33;;;;;;;10.77;9.38;;;;;;;;;;4970663;28;20676;-52
2023/04/21 11:53:59;;;;;;;10.85;9.38;;;;;;;;;;4971013;28;20177;-53
2023/04/21 11:56:25;;;;;;;11.75;9.70;;;;;;;;;;4970599;28;20176;-47
2023/04/21 11:58:52;;;;;;;13.40;9.00;;;18.10;99.90;;;;;;4971083;28;20177;-52
2023/04/21 12:01:18;;;;;;;11.70;9.07;;;18.10;99.90;;;;;;4970686;28;20248;-52
2023/04/21 12:03:51;;;;;;;11.23;9.15;;;18.40;99.90;;;;;;4970564;28;20173;-52
2023/04/21 12:06:22;;;;;;;13.27;10.32;;;18.50;99.90;;;;;;4985794;28;20276;-49
2023/04/21 12:08:53;;;;;;;10.88;9.48;;;18.40;99.90;;;;;;4951228;28;20292;-52
2023/04/21 12:11:19;;;;;;;12.23;8.18;;;;;;;;;;4951058;28;20251;-53
2023/04/21 12:13:45;;;;;;;10.38;8.32;;;18.40;99.90;;;;;;4951135;28;20244;-51
2023/04/21 12:16:12;;;;;;;10.35;8.18;;;18.50;99.90;;;;;;4962940;28;20514;-52
2023/04/21 12:18:37;;;;;;;10.48;8.50;;;18.60;99.90;;;;;;4970322;28;20218;-52
2023/04/21 12:21:03;;;;;;;11.10;8.73;;;18.90;99.90;;;;;;4968948;28;20292;-52
2023/04/21 12:23:28;;;;;;;9.25;7.40;;;18.70;99.90;;;;;;4970238;28;20162;-51
2023/04/21 12:25:54;;;;;;;9.90;8.10;;;18.70;99.90;;;;;;4970388;28;20178;-52
2023/04/21 12:28:19;;;;;;;6.80;6.10;;;18.70;99.90;;;;;;4970059;28;20245;-48
2023/04/21 12:30:45;;;;;;;11.50;7.45;;;18.80;99.90;;;;;;4968828;28;20262;-51
2023/04/21 12:33:11;;;;;;;10.25;8.23;;;18.80;99.90;;;;;;4970081;28;20608;-49
2023/04/21 12:35:37;;;;;;;8.88;7.15;;;18.80;99.90;;;;;;4980476;28;20182;-52
2023/04/21 12:38:03;;;;;;;8.25;7.05;;;;;;;;;;4989646;28;20179;-50
2023/04/21 12:40:29;;;;;;;8.55;7.03;;;;;;;;;;4989455;28;20247;-51
2023/04/21 12:42:55;;;;;;;10.65;7.95;;;;;;;;;;4989192;28;20180;-49
2023/04/21 12:45:21;;;;;;;7.80;7.00;;;;;;;;;;4989654;28;20177;-52
2023/04/21 12:47:47;;;;;;;10.18;7.32;;;19.30;99.90;;;;;;4989309;28;20169;-50
2023/04/21 12:50:13;;;;;;;8.13;7.03;;;19.10;99.90;;;;;;4989140;28;20447;-52
2023/04/21 12:52:38;;;;;;;13.43;7.68;;;19.00;99.90;;;;;;4989530;28;20169;-49